Tarawa Terrace, North Carolina
Current Conditions -  °F | °C
As of 10:56 PM on Tuesday 27 Jan 2015 (Local Time) from KNCA Reporting Station
Clear Clear  
Wind Chill: 28°   Ceiling: Unl
Heat Index: 28°   Visibility: 7mi
Dew Point: 26°   Wind: 0mph
Humidity: 92%   Direction: NA
Pressure: 29.94"   Gusts: NA
Location:  34.73°N, 77.38°W
Report Text: KNCA 280356Z AUTO 00000KT 7SM CLR M02/M03 A2994 RMK AO2 SLP141 T10221033
Loading
Personal Weather Stations






























Interactive Weather Map New forecast layout! Learn more

10-Day Weather Forecast

Advertisements
Track Severe Weather on mobile